sensor_id;sensor_type;location;lat;lon;timestamp;pressure;altitude;pressure_sealevel;temperature;humidity
57234;BME280;43090;52.604;13.318;2023-03-14T00:01:43;98684.03;;;10.45;100.00
57234;BME280;43090;52.604;13.318;2023-03-14T00:04:10;98685.09;;;10.52;100.00
57234;BME280;43090;52.604;13.318;2023-03-14T00:06:37;98693.13;;;10.34;100.00
57234;BME280;43090;52.604;13.318;2023-03-14T00:09:03;98672.38;;;10.54;100.00
57234;BME280;43090;52.604;13.318;2023-03-14T00:11:29;98665.00;;;10.48;100.00
57234;BME280;43090;52.604;13.318;2023-03-14T00:13:57;98670.06;;;10.59;100.00
57234;BME280;43090;52.604;13.318;2023-03-14T00:16:23;98685.50;;;10.39;100.00
57234;BME280;43090;52.604;13.318;2023-03-14T00:18:52;98676.31;;;10.42;100.00
57234;BME280;43090;52.604;13.318;2023-03-14T00:21:19;98658.84;;;10.29;100.00
57234;BME280;43090;52.604;13.318;2023-03-14T00:23:45;98646.56;;;10.45;100.00
57234;BME280;43090;52.604;13.318;2023-03-14T00:26:13;98643.69;;;10.38;100.00
57234;BME280;43090;52.604;13.318;2023-03-14T00:28:40;98640.13;;;10.29;100.00
57234;BME280;43090;52.604;13.318;2023-03-14T00:31:07;98638.44;;;10.28;100.00
57234;BME280;43090;52.604;13.318;2023-03-14T00:33:34;98622.56;;;10.27;100.00
57234;BME280;43090;52.604;13.318;2023-03-14T00:36:04;98616.13;;;10.38;100.00
57234;BME280;43090;52.604;13.318;2023-03-14T00:38:31;98601.88;;;10.37;100.00
57234;BME280;43090;52.604;13.318;2023-03-14T00:40:58;98597.97;;;10.23;100.00
57234;BME280;43090;52.604;13.318;2023-03-14T00:43:25;98612.84;;;10.26;100.00
57234;BME280;43090;52.604;13.318;2023-03-14T00:45:51;98615.13;;;10.12;100.00
57234;BME280;43090;52.604;13.318;2023-03-14T00:48:18;98618.41;;;10.06;100.00
57234;BME280;43090;52.604;13.318;2023-03-14T00:50:45;98604.94;;;10.16;100.00
57234;BME280;43090;52.604;13.318;2023-03-14T00:53:12;98605.59;;;10.10;100.00
57234;BME280;43090;52.604;13.318;2023-03-14T00:55:39;98601.03;;;10.02;100.00
57234;BME280;43090;52.604;13.318;2023-03-14T00:58:06;98595.50;;;10.04;100.00
57234;BME280;43090;52.604;13.318;2023-03-14T01:00:32;98585.22;;;9.91;100.00
57234;BME280;43090;52.604;13.318;2023-03-14T01:03:02;98596.66;;;10.01;100.00
57234;BME280;43090;52.604;13.318;2023-03-14T01:05:28;98590.84;;;10.06;100.00
57234;BME280;43090;52.604;13.318;2023-03-14T01:07:55;98580.00;;;10.07;100.00
57234;BME280;43090;52.604;13.318;2023-03-14T01:10:26;98575.63;;;10.06;100.00
57234;BME280;43090;52.604;13.318;2023-03-14T01:13:00;98566.63;;;10.07;100.00
57234;BME280;43090;52.604;13.318;2023-03-14T01:15:26;98577.53;;;9.88;100.00
57234;BME280;43090;52.604;13.318;2023-03-14T01:17:53;98598.81;;;9.97;100.00
57234;BME280;43090;52.604;13.318;2023-03-14T01:20:19;98602.53;;;9.78;100.00
57234;BME280;43090;52.604;13.318;2023-03-14T01:22:48;98610.22;;;9.81;100.00
57234;BME280;43090;52.604;13.318;2023-03-14T01:25:17;98632.19;;;9.93;100.00
57234;BME280;43090;52.604;13.318;2023-03-14T01:27:44;98641.69;;;9.88;100.00
57234;BME280;43090;52.604;13.318;2023-03-14T01:30:11;98651.03;;;9.65;100.00
57234;BME280;43090;52.604;13.318;2023-03-14T01:32:38;98649.44;;;9.73;100.00
57234;BME280;43090;52.604;13.318;2023-03-14T01:35:05;98643.81;;;9.84;100.00
57234;BME280;43090;52.604;13.318;2023-03-14T01:37:32;98648.03;;;9.87;100.00
57234;BME280;43090;52.604;13.318;2023-03-14T01:39:58;98647.94;;;9.96;100.00
57234;BME280;43090;52.604;13.318;2023-03-14T01:42:25;98638.06;;;9.97;100.00
57234;BME280;43090;52.604;13.318;2023-03-14T01:44:55;98653.22;;;9.88;100.00
57234;BME280;43090;52.604;13.318;2023-03-14T01:47:23;98649.34;;;9.82;100.00
57234;BME280;43090;52.604;13.318;2023-03-14T01:49:51;98664.50;;;10.00;100.00
57234;BME280;43090;52.604;13.318;2023-03-14T01:52:22;98666.84;;;9.77;100.00
57234;BME280;43090;52.604;13.318;2023-03-14T01:54:53;98666.53;;;9.80;100.00
57234;BME280;43090;52.604;13.318;2023-03-14T01:57:22;98661.38;;;9.87;100.00
57234;BME280;43090;52.604;13.318;2023-03-14T02:00:01;98648.72;;;9.89;100.00
57234;BME280;43090;52.604;13.318;2023-03-14T02:02:30;98643.16;;;9.82;100.00
57234;BME280;43090;52.604;13.318;2023-03-14T02:04:56;98633.31;;;9.82;100.00
57234;BME280;43090;52.604;13.318;2023-03-14T02:07:25;98625.13;;;9.84;100.00
57234;BME280;43090;52.604;13.318;2023-03-14T02:10:02;98627.69;;;9.67;100.00
57234;BME280;43090;52.604;13.318;2023-03-14T02:12:29;98626.84;;;9.93;100.00
57234;BME280;43090;52.604;13.318;2023-03-14T02:14:56;98634.03;;;9.93;100.00
57234;BME280;43090;52.604;13.318;2023-03-14T02:17:22;98628.38;;;9.96;100.00
57234;BME280;43090;52.604;13.318;2023-03-14T02:19:56;98629.16;;;9.88;100.00
57234;BME280;43090;52.604;13.318;2023-03-14T02:22:27;98632.75;;;9.79;100.00
57234;BME280;43090;52.604;13.318;2023-03-14T02:24:57;98620.00;;;9.64;100.00
57234;BME280;43090;52.604;13.318;2023-03-14T02:27:31;98605.09;;;9.88;100.00
57234;BME280;43090;52.604;13.318;2023-03-14T02:30:02;98604.63;;;9.93;100.00
57234;BME280;43090;52.604;13.318;2023-03-14T02:32:30;98612.44;;;9.86;100.00
57234;BME280;43090;52.604;13.318;2023-03-14T02:34:58;98609.38;;;9.99;100.00
57234;BME280;43090;52.604;13.318;2023-03-14T02:37:27;98610.94;;;10.10;100.00
57234;BME280;43090;52.604;13.318;2023-03-14T02:39:56;98599.50;;;9.99;100.00
57234;BME280;43090;52.604;13.318;2023-03-14T02:42:23;98597.03;;;9.80;100.00
57234;BME280;43090;52.604;13.318;2023-03-14T02:47:20;98588.84;;;10.08;100.00
57234;BME280;43090;52.604;13.318;2023-03-14T02:50:01;98585.50;;;10.06;100.00
57234;BME280;43090;52.604;13.318;2023-03-14T02:52:29;98586.88;;;10.10;100.00
57234;BME280;43090;52.604;13.318;2023-03-14T02:54:55;98567.91;;;9.95;100.00
57234;BME280;43090;52.604;13.318;2023-03-14T02:57:22;98568.69;;;9.87;100.00
57234;BME280;43090;52.604;13.318;2023-03-14T02:59:48;98560.34;;;9.90;100.00
57234;BME280;43090;52.604;13.318;2023-03-14T03:02:18;98548.69;;;9.99;100.00
57234;BME280;43090;52.604;13.318;2023-03-14T03:04:48;98545.59;;;9.78;100.00
57234;BME280;43090;52.604;13.318;2023-03-14T03:07:35;98548.66;;;9.91;100.00
57234;BME280;43090;52.604;13.318;2023-03-14T03:10:19;98535.13;;;9.93;100.00
57234;BME280;43090;52.604;13.318;2023-03-14T03:12:45;98533.94;;;9.87;100.00
57234;BME280;43090;52.604;13.318;2023-03-14T03:15:12;98527.09;;;9.84;100.00
57234;BME280;43090;52.604;13.318;2023-03-14T03:17:38;98521.34;;;9.71;100.00
57234;BME280;43090;52.604;13.318;2023-03-14T03:20:05;98525.56;;;9.82;100.00
57234;BME280;43090;52.604;13.318;2023-03-14T03:22:35;98520.84;;;9.76;100.00
57234;BME280;43090;52.604;13.318;2023-03-14T03:25:03;98522.53;;;9.77;100.00
57234;BME280;43090;52.604;13.318;2023-03-14T03:27:33;98516.69;;;9.81;100.00
57234;BME280;43090;52.604;13.318;2023-03-14T03:30:06;98521.69;;;9.50;100.00
57234;BME280;43090;52.604;13.318;2023-03-14T03:32:48;98533.19;;;9.69;100.00
57234;BME280;43090;52.604;13.318;2023-03-14T03:35:15;98545.38;;;9.71;100.00
57234;BME280;43090;52.604;13.318;2023-03-14T03:37:42;98552.81;;;9.86;100.00
57234;BME280;43090;52.604;13.318;2023-03-14T03:40:09;98535.47;;;9.63;100.00
57234;BME280;43090;52.604;13.318;2023-03-14T03:42:36;98546.94;;;9.82;100.00
57234;BME280;43090;52.604;13.318;2023-03-14T03:45:03;98543.22;;;9.75;100.00
57234;BME280;43090;52.604;13.318;2023-03-14T03:47:30;98535.09;;;9.84;100.00
57234;BME280;43090;52.604;13.318;2023-03-14T03:50:28;98535.78;;;9.60;100.00
57234;BME280;43090;52.604;13.318;2023-03-14T03:53:10;98520.22;;;9.56;100.00
57234;BME280;43090;52.604;13.318;2023-03-14T03:55:42;98526.59;;;9.63;100.00
57234;BME280;43090;52.604;13.318;2023-03-14T03:58:08;98515.91;;;9.63;100.00
57234;BME280;43090;52.604;13.318;2023-03-14T04:00:35;98515.50;;;9.76;100.00
57234;BME280;43090;52.604;13.318;2023-03-14T04:03:01;98526.19;;;9.76;100.00
57234;BME280;43090;52.604;13.318;2023-03-14T04:05:28;98529.97;;;9.65;100.00
57234;BME280;43090;52.604;13.318;2023-03-14T04:07:54;98535.88;;;9.77;100.00
57234;BME280;43090;52.604;13.318;2023-03-14T04:10:21;98535.56;;;9.54;100.00
57234;BME280;43090;52.604;13.318;2023-03-14T04:12:49;98513.78;;;9.66;100.00
57234;BME280;43090;52.604;13.318;2023-03-14T04:15:15;98526.47;;;9.64;100.00
57234;BME280;43090;52.604;13.318;2023-03-14T04:17:42;98532.75;;;9.55;100.00
57234;BME280;43090;52.604;13.318;2023-03-14T04:20:09;98530.72;;;9.49;100.00
57234;BME280;43090;52.604;13.318;2023-03-14T04:22:38;98518.22;;;9.58;100.00
57234;BME280;43090;52.604;13.318;2023-03-14T04:25:05;98526.25;;;9.58;100.00
57234;BME280;43090;52.604;13.318;2023-03-14T04:27:34;98518.88;;;9.52;100.00
57234;BME280;43090;52.604;13.318;2023-03-14T04:30:07;98521.78;;;9.66;100.00
57234;BME280;43090;52.604;13.318;2023-03-14T04:32:34;98516.97;;;9.70;100.00
57234;BME280;43090;52.604;13.318;2023-03-14T04:35:01;98508.19;;;9.52;100.00
57234;BME280;43090;52.604;13.318;2023-03-14T04:37:29;98503.63;;;9.70;100.00
57234;BME280;43090;52.604;13.318;2023-03-14T04:39:55;98494.72;;;9.61;100.00
57234;BME280;43090;52.604;13.318;2023-03-14T04:42:22;98489.41;;;9.70;100.00
57234;BME280;43090;52.604;13.318;2023-03-14T04:44:49;98485.63;;;9.80;100.00
57234;BME280;43090;52.604;13.318;2023-03-14T04:47:26;98480.69;;;9.59;100.00
57234;BME280;43090;52.604;13.318;2023-03-14T04:49:55;98473.38;;;9.70;100.00
57234;BME280;43090;52.604;13.318;2023-03-14T04:55:28;98460.56;;;9.81;100.00
57234;BME280;43090;52.604;13.318;2023-03-14T04:57:58;98459.38;;;9.76;100.00
57234;BME280;43090;52.604;13.318;2023-03-14T05:00:25;98466.66;;;9.65;100.00
57234;BME280;43090;52.604;13.318;2023-03-14T05:02:51;98479.09;;;9.48;100.00
57234;BME280;43090;52.604;13.318;2023-03-14T05:05:18;98472.38;;;9.71;100.00
57234;BME280;43090;52.604;13.318;2023-03-14T05:07:50;98490.09;;;9.72;100.00
57234;BME280;43090;52.604;13.318;2023-03-14T05:10:28;98485.53;;;9.64;100.00
57234;BME280;43090;52.604;13.318;2023-03-14T05:13:05;98463.00;;;9.66;100.00
57234;BME280;43090;52.604;13.318;2023-03-14T05:22:32;98461.66;;;9.62;100.00
57234;BME280;43090;52.604;13.318;2023-03-14T05:25:01;98445.44;;;9.56;100.00
57234;BME280;43090;52.604;13.318;2023-03-14T05:27:28;98457.00;;;9.64;100.00
57234;BME280;43090;52.604;13.318;2023-03-14T05:30:09;98451.03;;;9.79;100.00
57234;BME280;43090;52.604;13.318;2023-03-14T05:32:52;98459.38;;;9.76;100.00
57234;BME280;43090;52.604;13.318;2023-03-14T05:35:22;98461.72;;;9.79;99.28
57234;BME280;43090;52.604;13.318;2023-03-14T05:37:48;98451.50;;;9.66;100.00
57234;BME280;43090;52.604;13.318;2023-03-14T05:40:14;98457.03;;;9.73;99.14
57234;BME280;43090;52.604;13.318;2023-03-14T05:42:41;98454.94;;;9.50;100.00
57234;BME280;43090;52.604;13.318;2023-03-14T05:45:08;98448.66;;;9.67;100.00
57234;BME280;43090;52.604;13.318;2023-03-14T05:47:34;98455.50;;;9.62;99.82
57234;BME280;43090;52.604;13.318;2023-03-14T05:50:10;98448.56;;;9.51;100.00
57234;BME280;43090;52.604;13.318;2023-03-14T05:52:37;98461.16;;;9.67;100.00
57234;BME280;43090;52.604;13.318;2023-03-14T05:55:04;98458.34;;;9.69;99.39
57234;BME280;43090;52.604;13.318;2023-03-14T05:57:30;98453.38;;;9.74;98.71
57234;BME280;43090;52.604;13.318;2023-03-14T05:59:57;98458.34;;;9.69;97.66
57234;BME280;43090;52.604;13.318;2023-03-14T06:02:23;98453.69;;;9.71;98.50
57234;BME280;43090;52.604;13.318;2023-03-14T06:04:50;98454.72;;;9.78;98.17
57234;BME280;43090;52.604;13.318;2023-03-14T06:07:16;98455.34;;;9.72;97.04
57234;BME280;43090;52.604;13.318;2023-03-14T06:09:43;98455.22;;;9.81;95.88
57234;BME280;43090;52.604;13.318;2023-03-14T06:12:09;98459.19;;;9.69;98.68
57234;BME280;43090;52.604;13.318;2023-03-14T06:14:40;98452.91;;;9.87;95.40
57234;BME280;43090;52.604;13.318;2023-03-14T06:17:06;98447.72;;;9.85;96.47
57234;BME280;43090;52.604;13.318;2023-03-14T06:19:33;98445.38;;;9.82;95.56
57234;BME280;43090;52.604;13.318;2023-03-14T06:22:00;98438.38;;;9.89;94.57
57234;BME280;43090;52.604;13.318;2023-03-14T06:24:27;98437.53;;;9.80;95.80
57234;BME280;43090;52.604;13.318;2023-03-14T06:26:53;98443.47;;;10.00;94.46
57234;BME280;43090;52.604;13.318;2023-03-14T06:29:20;98449.63;;;10.01;93.70
57234;BME280;43090;52.604;13.318;2023-03-14T06:31:46;98448.81;;;10.00;92.28
57234;BME280;43090;52.604;13.318;2023-03-14T06:34:13;98450.16;;;10.05;92.25
57234;BME280;43090;52.604;13.318;2023-03-14T06:36:40;98443.81;;;10.14;91.75
57234;BME280;43090;52.604;13.318;2023-03-14T06:39:07;98450.19;;;10.21;91.91
57234;BME280;43090;52.604;13.318;2023-03-14T06:41:33;98458.06;;;10.23;90.36
57234;BME280;43090;52.604;13.318;2023-03-14T06:44:11;98464.94;;;10.25;89.01
57234;BME280;43090;52.604;13.318;2023-03-14T06:46:39;98466.66;;;10.43;88.10
57234;BME280;43090;52.604;13.318;2023-03-14T06:49:07;98460.63;;;10.41;87.06
57234;BME280;43090;52.604;13.318;2023-03-14T06:51:34;98469.25;;;10.26;90.60
57234;BME280;43090;52.604;13.318;2023-03-14T06:54:03;98464.47;;;10.46;89.75
57234;BME280;43090;52.604;13.318;2023-03-14T06:56:32;98469.69;;;10.48;87.56
57234;BME280;43090;52.604;13.318;2023-03-14T06:59:03;98479.56;;;10.56;87.30
57234;BME280;43090;52.604;13.318;2023-03-14T07:01:33;98480.06;;;10.59;87.57
57234;BME280;43090;52.604;13.318;2023-03-14T07:04:04;98479.75;;;10.62;87.84
57234;BME280;43090;52.604;13.318;2023-03-14T07:06:38;98475.06;;;10.64;88.75
57234;BME280;43090;52.604;13.318;2023-03-14T07:09:19;98488.59;;;10.63;87.53
57234;BME280;43090;52.604;13.318;2023-03-14T07:11:47;98486.75;;;10.47;88.81
57234;BME280;43090;52.604;13.318;2023-03-14T07:14:16;98495.75;;;10.38;88.18
57234;BME280;43090;52.604;13.318;2023-03-14T07:16:45;98484.41;;;10.60;85.85
57234;BME280;43090;52.604;13.318;2023-03-14T07:19:20;98492.78;;;10.57;86.44
57234;BME280;43090;52.604;13.318;2023-03-14T07:22:15;98492.44;;;10.44;86.10
57234;BME280;43090;52.604;13.318;2023-03-14T07:24:48;98496.00;;;10.26;89.31
57234;BME280;43090;52.604;13.318;2023-03-14T07:30:04;98502.69;;;10.30;89.72
57234;BME280;43090;52.604;13.318;2023-03-14T07:32:32;98500.59;;;10.42;88.87
57234;BME280;43090;52.604;13.318;2023-03-14T07:34:59;98503.44;;;10.41;88.60
57234;BME280;43090;52.604;13.318;2023-03-14T07:37:34;98505.19;;;10.24;90.93
57234;BME280;43090;52.604;13.318;2023-03-14T07:40:06;98512.22;;;10.25;90.30
57234;BME280;43090;52.604;13.318;2023-03-14T07:42:39;98523.84;;;10.42;89.43
57234;BME280;43090;52.604;13.318;2023-03-14T07:45:09;98517.69;;;10.49;89.15
57234;BME280;43090;52.604;13.318;2023-03-14T07:47:37;98506.63;;;10.44;88.76
57234;BME280;43090;52.604;13.318;2023-03-14T07:50:08;98516.53;;;10.69;87.01
57234;BME280;43090;52.604;13.318;2023-03-14T07:56:57;98515.75;;;10.93;86.88
57234;BME280;43090;52.604;13.318;2023-03-14T07:59:31;98511.91;;;11.12;86.15
57234;BME280;43090;52.604;13.318;2023-03-14T08:02:02;98526.28;;;11.11;85.58
57234;BME280;43090;52.604;13.318;2023-03-14T08:04:34;98513.22;;;11.49;83.78
57234;BME280;43090;52.604;13.318;2023-03-14T08:07:09;98506.16;;;11.64;82.85
57234;BME280;43090;52.604;13.318;2023-03-14T08:09:38;98504.06;;;11.91;81.17
57234;BME280;43090;52.604;13.318;2023-03-14T08:12:05;98496.03;;;11.91;80.58
57234;BME280;43090;52.604;13.318;2023-03-14T08:14:31;98499.94;;;11.64;82.72
57234;BME280;43090;52.604;13.318;2023-03-14T08:16:58;98501.53;;;12.06;80.35
57234;BME280;43090;52.604;13.318;2023-03-14T08:19:27;98503.97;;;11.60;82.08
57234;BME280;43090;52.604;13.318;2023-03-14T08:21:54;98501.75;;;11.80;79.75
57234;BME280;43090;52.604;13.318;2023-03-14T08:24:20;98506.09;;;11.97;79.79
57234;BME280;43090;52.604;13.318;2023-03-14T08:26:49;98504.97;;;11.75;79.64
57234;BME280;43090;52.604;13.318;2023-03-14T08:29:17;98504.78;;;11.77;79.87
57234;BME280;43090;52.604;13.318;2023-03-14T08:31:44;98499.28;;;11.62;80.83
57234;BME280;43090;52.604;13.318;2023-03-14T08:34:23;98513.38;;;11.47;82.36
57234;BME280;43090;52.604;13.318;2023-03-14T08:36:56;98506.53;;;11.37;83.18
57234;BME280;43090;52.604;13.318;2023-03-14T08:39:37;98509.22;;;11.20;84.30
57234;BME280;43090;52.604;13.318;2023-03-14T08:42:03;98519.09;;;11.44;81.84
57234;BME280;43090;52.604;13.318;2023-03-14T08:44:30;98522.78;;;11.19;83.80
57234;BME280;43090;52.604;13.318;2023-03-14T08:46:56;98520.25;;;11.00;85.67
57234;BME280;43090;52.604;13.318;2023-03-14T08:49:23;98516.25;;;11.05;87.17
57234;BME280;43090;52.604;13.318;2023-03-14T08:51:50;98523.78;;;11.26;84.97
57234;BME280;43090;52.604;13.318;2023-03-14T08:54:16;98515.56;;;11.11;86.23
57234;BME280;43090;52.604;13.318;2023-03-14T08:56:45;98528.28;;;11.33;84.98
57234;BME280;43090;52.604;13.318;2023-03-14T08:59:14;98522.44;;;11.13;86.46
57234;BME280;43090;52.604;13.318;2023-03-14T09:01:41;98530.81;;;11.43;83.32
57234;BME280;43090;52.604;13.318;2023-03-14T09:04:07;98526.94;;;11.54;83.23
57234;BME280;43090;52.604;13.318;2023-03-14T09:06:34;98531.94;;;11.74;83.17
57234;BME280;43090;52.604;13.318;2023-03-14T09:09:03;98533.28;;;11.61;83.40
57234;BME280;43090;52.604;13.318;2023-03-14T09:11:30;98519.25;;;11.51;84.19
57234;BME280;43090;52.604;13.318;2023-03-14T09:13:57;98514.44;;;11.94;81.61
57234;BME280;43090;52.604;13.318;2023-03-14T09:16:23;98511.16;;;11.84;81.79
57234;BME280;43090;52.604;13.318;2023-03-14T09:18:50;98512.13;;;11.99;80.90
57234;BME280;43090;52.604;13.318;2023-03-14T09:21:21;98505.38;;;12.04;80.95
57234;BME280;43090;52.604;13.318;2023-03-14T09:23:47;98494.19;;;12.00;80.56
57234;BME280;43090;52.604;13.318;2023-03-14T09:26:14;98501.16;;;12.18;79.57
57234;BME280;43090;52.604;13.318;2023-03-14T09:28:42;98497.06;;;12.30;79.63
57234;BME280;43090;52.604;13.318;2023-03-14T09:33:58;98485.88;;;12.81;76.01
57234;BME280;43090;52.604;13.318;2023-03-14T09:36:24;98481.84;;;13.23;74.16
57234;BME280;43090;52.604;13.318;2023-03-14T09:38:53;98479.91;;;12.71;74.81
57234;BME280;43090;52.604;13.318;2023-03-14T09:41:57;98483.81;;;12.83;73.88
57234;BME280;43090;52.604;13.318;2023-03-14T09:44:33;98471.59;;;12.57;74.53
57234;BME280;43090;52.604;13.318;2023-03-14T09:47:04;98487.50;;;12.59;74.74
57234;BME280;43090;52.604;13.318;2023-03-14T09:49:41;98478.53;;;12.75;73.04
57234;BME280;43090;52.604;13.318;2023-03-14T09:52:12;98490.03;;;12.60;74.09
57234;BME280;43090;52.604;13.318;2023-03-14T09:54:50;98486.03;;;12.56;74.13
57234;BME280;43090;52.604;13.318;2023-03-14T09:57:41;98490.47;;;11.93;77.85
57234;BME280;43090;52.604;13.318;2023-03-14T10:00:25;98493.16;;;12.09;75.16
57234;BME280;43090;52.604;13.318;2023-03-14T10:02:56;98496.31;;;12.13;75.88
57234;BME280;43090;52.604;13.318;2023-03-14T10:05:32;98494.34;;;11.90;76.48
57234;BME280;43090;52.604;13.318;2023-03-14T10:08:08;98493.31;;;12.08;74.35
57234;BME280;43090;52.604;13.318;2023-03-14T10:11:01;98494.56;;;12.28;73.04
57234;BME280;43090;52.604;13.318;2023-03-14T10:31:13;98502.06;;;11.93;76.98
57234;BME280;43090;52.604;13.318;2023-03-14T10:51:10;98507.44;;;11.85;74.36
57234;BME280;43090;52.604;13.318;2023-03-14T10:53:57;98500.91;;;11.79;75.67
57234;BME280;43090;52.604;13.318;2023-03-14T10:56:25;98500.41;;;11.84;74.65
57234;BME280;43090;52.604;13.318;2023-03-14T10:58:53;98508.47;;;11.84;74.69
57234;BME280;43090;52.604;13.318;2023-03-14T11:09:58;98504.56;;;11.87;73.23
57234;BME280;43090;52.604;13.318;2023-03-14T11:15:05;98496.84;;;11.92;73.04
57234;BME280;43090;52.604;13.318;2023-03-14T11:17:52;98505.47;;;11.71;76.01
57234;BME280;43090;52.604;13.318;2023-03-14T11:20:27;98496.78;;;11.69;74.32
57234;BME280;43090;52.604;13.318;2023-03-14T11:23:18;98499.09;;;11.72;74.86
57234;BME280;43090;52.604;13.318;2023-03-14T11:28:34;98489.41;;;11.62;76.15
57234;BME280;43090;52.604;13.318;2023-03-14T11:36:52;98492.09;;;11.62;75.59
57234;BME280;43090;52.604;13.318;2023-03-14T11:39:21;98487.94;;;11.52;77.61
57234;BME280;43090;52.604;13.318;2023-03-14T11:41:49;98491.75;;;11.57;76.40
57234;BME280;43090;52.604;13.318;2023-03-14T11:49:39;98485.06;;;11.53;76.68
57234;BME280;43090;52.604;13.318;2023-03-14T11:52:22;98479.19;;;11.49;78.63
57234;BME280;43090;52.604;13.318;2023-03-14T11:54:54;98483.41;;;11.60;78.52
57234;BME280;43090;52.604;13.318;2023-03-14T11:57:21;98480.56;;;11.54;79.43
57234;BME280;43090;52.604;13.318;2023-03-14T11:59:52;98482.97;;;11.88;76.87
57234;BME280;43090;52.604;13.318;2023-03-14T12:18:32;98489.44;;;11.54;88.57
57234;BME280;43090;52.604;13.318;2023-03-14T12:21:03;98479.72;;;11.45;90.02
57234;BME280;43090;52.604;13.318;2023-03-14T12:26:59;98477.72;;;11.55;89.49
57234;BME280;43090;52.604;13.318;2023-03-14T12:29:31;98476.94;;;11.86;87.78
57234;BME280;43090;52.604;13.318;2023-03-14T12:34:28;98467.66;;;12.13;82.03
57234;BME280;43090;52.604;13.318;2023-03-14T12:37:01;98465.84;;;12.37;81.81
57234;BME280;43090;52.604;13.318;2023-03-14T12:42:13;98460.59;;;12.44;80.37
57234;BME280;43090;52.604;13.318;2023-03-14T12:44:43;98464.25;;;12.51;79.90
57234;BME280;43090;52.604;13.318;2023-03-14T12:47:39;98462.78;;;12.09;78.56
57234;BME280;43090;52.604;13.318;2023-03-14T12:50:00;98461.47;;;12.05;78.96
57234;BME280;43090;52.604;13.318;2023-03-14T12:52:39;98472.16;;;12.13;78.58
57234;BME280;43090;52.604;13.318;2023-03-14T13:01:36;98461.78;;;12.10;80.90
57234;BME280;43090;52.604;13.318;2023-03-14T13:04:03;98462.84;;;12.00;81.88
57234;BME280;43090;52.604;13.318;2023-03-14T13:09:51;98470.84;;;12.09;85.30
57234;BME280;43090;52.604;13.318;2023-03-14T13:12:23;98462.75;;;12.17;85.10
57234;BME280;43090;52.604;13.318;2023-03-14T13:14:50;98448.91;;;12.37;84.86
57234;BME280;43090;52.604;13.318;2023-03-14T13:17:29;98452.44;;;12.37;83.12
57234;BME280;43090;52.604;13.318;2023-03-14T13:20:10;98450.09;;;12.34;83.20
57234;BME280;43090;52.604;13.318;2023-03-14T13:22:39;98440.38;;;12.56;84.18
57234;BME280;43090;52.604;13.318;2023-03-14T13:25:11;98429.69;;;12.71;82.05
57234;BME280;43090;52.604;13.318;2023-03-14T13:27:38;98432.63;;;12.61;82.43
57234;BME280;43090;52.604;13.318;2023-03-14T13:30:13;98424.41;;;12.86;80.12
57234;BME280;43090;52.604;13.318;2023-03-14T13:32:43;98423.06;;;13.05;79.82
57234;BME280;43090;52.604;13.318;2023-03-14T13:38:41;98421.47;;;13.11;79.31
57234;BME280;43090;52.604;13.318;2023-03-14T13:41:22;98423.81;;;12.76;80.56
57234;BME280;43090;52.604;13.318;2023-03-14T13:43:52;98420.69;;;12.87;77.76
57234;BME280;43090;52.604;13.318;2023-03-14T13:46:28;98418.53;;;12.59;78.59
57234;BME280;43090;52.604;13.318;2023-03-14T13:48:56;98417.47;;;12.92;80.15
57234;BME280;43090;52.604;13.318;2023-03-14T13:51:26;98416.19;;;13.03;77.17
57234;BME280;43090;52.604;13.318;2023-03-14T13:54:01;98415.50;;;12.86;77.34
57234;BME280;43090;52.604;13.318;2023-03-14T13:56:32;98406.34;;;12.95;78.02
57234;BME280;43090;52.604;13.318;2023-03-14T13:59:28;98406.41;;;13.10;77.09
57234;BME280;43090;52.604;13.318;2023-03-14T14:02:47;98410.16;;;13.39;73.43
57234;BME280;43090;52.604;13.318;2023-03-14T14:08:44;98396.22;;;13.35;74.27
57234;BME280;43090;52.604;13.318;2023-03-14T14:11:14;98400.13;;;13.32;73.95
57234;BME280;43090;52.604;13.318;2023-03-14T14:13:42;98381.50;;;13.31;71.12
57234;BME280;43090;52.604;13.318;2023-03-14T14:16:08;98391.06;;;13.33;72.57
57234;BME280;43090;52.604;13.318;2023-03-14T14:18:35;98381.22;;;13.26;71.91
57234;BME280;43090;52.604;13.318;2023-03-14T14:21:02;98389.81;;;13.21;72.11
57234;BME280;43090;52.604;13.318;2023-03-14T14:23:33;98383.66;;;12.97;73.10
57234;BME280;43090;52.604;13.318;2023-03-14T14:26:00;98390.34;;;13.02;72.09
57234;BME280;43090;52.604;13.318;2023-03-14T14:31:01;98382.03;;;13.11;71.81
57234;BME280;43090;52.604;13.318;2023-03-14T14:33:38;98398.09;;;12.96;72.68
57234;BME280;43090;52.604;13.318;2023-03-14T14:36:27;98402.06;;;12.86;72.66
57234;BME280;43090;52.604;13.318;2023-03-14T14:41:39;98410.75;;;12.49;75.24
57234;BME280;43090;52.604;13.318;2023-03-14T14:44:10;98440.28;;;12.18;79.74
57234;BME280;43090;52.604;13.318;2023-03-14T14:46:38;98436.34;;;11.89;83.54
57234;BME280;43090;52.604;13.318;2023-03-14T14:49:06;98427.13;;;11.60;90.85
57234;BME280;43090;52.604;13.318;2023-03-14T14:51:39;98422.63;;;11.44;92.97
57234;BME280;43090;52.604;13.318;2023-03-14T14:54:18;98427.56;;;10.83;98.79
57234;BME280;43090;52.604;13.318;2023-03-14T14:56:49;98414.31;;;11.14;99.92
57234;BME280;43090;52.604;13.318;2023-03-14T15:03:41;98425.91;;;10.90;100.00
57234;BME280;43090;52.604;13.318;2023-03-14T15:06:21;98436.25;;;11.18;100.00
57234;BME280;43090;52.604;13.318;2023-03-14T15:11:50;98538.97;;;10.25;100.00
57234;BME280;43090;52.604;13.318;2023-03-14T15:14:19;98575.47;;;8.37;100.00
57234;BME280;43090;52.604;13.318;2023-03-14T15:16:59;98603.66;;;7.55;100.00
57234;BME280;43090;52.604;13.318;2023-03-14T15:19:25;98609.69;;;7.08;100.00
57234;BME280;43090;52.604;13.318;2023-03-14T15:21:52;98657.97;;;6.74;100.00
57234;BME280;43090;52.604;13.318;2023-03-14T15:24:19;98660.47;;;6.34;100.00